Time;durP1;ratioP1;P1;durP2;ratioP2;P2;SDS_P1;SDS_P2;PMS_P1;PMS_P2;Temp;Humidity;BMP_temperature;BMP_pressure;BME280_temperature;BME280_humidity;BME280_pressure;Samples;Min_cycle;Max_cycle;Signal;HPM_P1;HPM_P2
2023/01/22 00:01:08;;;;;;;14.60;7.47;;;;;;;4.23;68.94;101588.97;5050504;28;20805;-59
2023/01/22 00:03:36;;;;;;;13.30;7.20;;;;;;;4.21;69.04;101589.09;5048002;28;20212;-62
2023/01/22 00:06:05;;;;;;;15.60;6.90;;;;;;;4.20;69.07;101579.50;5046822;28;20217;-62
2023/01/22 00:08:34;;;;;;;14.37;7.00;;;;;;;4.23;69.08;101583.72;5048368;28;20695;-62
2023/01/22 00:11:02;;;;;;;12.70;6.90;;;;;;;4.25;69.10;101587.13;5048133;28;20836;-61
2023/01/22 00:13:30;;;;;;;15.60;7.50;;;;;;;4.27;68.91;101580.88;5051022;28;20203;-61
2023/01/22 00:15:59;;;;;;;13.97;7.50;;;;;;;4.27;69.01;101574.78;5049032;28;20215;-61
2023/01/22 00:18:27;;;;;;;12.93;7.40;;;;;;;4.29;69.25;101580.81;5047181;28;20232;-61
2023/01/22 00:20:55;;;;;;;13.93;6.67;;;;;;;4.28;69.19;101577.31;5045711;28;20211;-62
2023/01/22 00:23:23;;;;;;;14.53;6.67;;;;;;;4.27;69.18;101572.16;5047978;28;20302;-60
2023/01/22 00:26:01;;;;;;;13.00;6.90;;;;;;;4.30;69.29;101574.63;5047204;28;20217;-61
2023/01/22 00:28:29;;;;;;;17.30;7.00;;;;;;;4.31;69.19;101581.59;5047127;28;20207;-62
2023/01/22 00:30:58;;;;;;;15.03;7.63;;;;;;;4.30;69.28;101566.75;5047741;28;20220;-61
2023/01/22 00:33:26;;;;;;;16.00;7.53;;;;;;;4.31;69.16;101576.31;5047799;28;20246;-60
2023/01/22 00:35:54;;;;;;;12.33;6.80;;;;;;;4.29;69.22;101572.94;5044988;28;20345;-61
2023/01/22 00:38:21;;;;;;;15.33;7.93;;;;;;;4.27;69.63;101574.78;5043429;28;21315;-62
2023/01/22 00:40:49;;;;;;;15.97;7.77;;;;;;;4.30;69.46;101579.88;5044475;28;20236;-60
2023/01/22 00:43:18;;;;;;;12.33;7.13;;;;;;;4.30;69.63;101564.13;5046109;28;20329;-61
2023/01/22 00:45:46;;;;;;;13.03;7.17;;;;;;;4.30;69.56;101569.38;5049593;28;21689;-61
2023/01/22 00:48:14;;;;;;;16.20;7.83;;;;;;;4.28;69.97;101566.81;5047180;28;20621;-62
2023/01/22 00:50:41;;;;;;;14.43;7.60;;;;;;;4.29;69.92;101562.44;5049643;28;20206;-61
2023/01/22 00:53:09;;;;;;;13.17;7.00;;;;;;;4.29;69.90;101552.78;5047869;28;20324;-61
2023/01/22 00:55:37;;;;;;;16.97;7.97;;;;;;;4.31;70.10;101560.56;5047576;28;20210;-61
2023/01/22 00:58:05;;;;;;;13.20;7.33;;;;;;;4.33;69.79;101556.06;5049026;28;20215;-62
2023/01/22 01:00:34;;;;;;;16.67;8.17;;;;;;;4.31;69.53;101553.50;5046492;28;20228;-62
2023/01/22 01:05:47;;;;;;;16.23;7.60;;;;;;;4.32;69.44;101552.59;5049703;28;20209;-63
2023/01/22 01:08:15;;;;;;;13.33;7.07;;;;;;;4.32;69.31;101549.97;5044467;28;22067;-61
2023/01/22 01:10:42;;;;;;;14.40;7.57;;;;;;;4.31;69.48;101553.50;5046701;28;20247;-61
2023/01/22 01:13:10;;;;;;;15.37;7.83;;;;;;;4.30;69.55;101558.88;5050125;28;20735;-61
2023/01/22 01:16:22;;;;;;;14.80;7.30;;;;;;;4.31;69.68;101557.94;5047784;28;20213;-61
2023/01/22 01:18:50;;;;;;;14.83;7.13;;;;;;;4.29;69.85;101551.91;5052511;28;20211;-61
2023/01/22 01:21:18;;;;;;;15.40;7.00;;;;;;;4.28;69.95;101550.22;5049636;28;20305;-62
2023/01/22 01:23:46;;;;;;;13.87;7.33;;;;;;;4.27;69.81;101553.78;5051316;28;20206;-61
2023/01/22 01:26:16;;;;;;;15.10;7.27;;;;;;;4.29;69.87;101557.16;5046140;28;20230;-61
2023/01/22 01:28:44;;;;;;;13.53;7.07;;;;;;;4.29;69.94;101547.53;5043376;28;20254;-61
2023/01/22 01:31:15;;;;;;;14.13;6.77;;;;;;;4.22;70.51;101545.31;5048447;28;20299;-61
2023/01/22 01:33:45;;;;;;;14.93;6.60;;;;;;;4.24;70.55;101551.28;5048604;28;20221;-62
2023/01/22 01:36:14;;;;;;;12.23;5.90;;;;;;;4.28;70.51;101545.81;5049674;28;20210;-61
2023/01/22 01:38:42;;;;;;;13.23;6.10;;;;;;;4.32;70.32;101551.75;5047718;28;20687;-59
2023/01/22 01:41:13;;;;;;;10.90;5.67;;;;;;;4.35;69.94;101556.84;5046012;28;20230;-59
2023/01/22 01:43:41;;;;;;;12.13;6.30;;;;;;;4.37;69.83;101550.56;5046424;28;20209;-60
2023/01/22 01:46:17;;;;;;;12.17;6.13;;;;;;;4.38;69.85;101540.94;5051972;28;20224;-60
2023/01/22 01:48:48;;;;;;;11.17;6.20;;;;;;;4.41;69.78;101546.00;5048454;28;20301;-60
2023/01/22 01:51:20;;;;;;;11.57;6.47;;;;;;;4.42;69.53;101547.69;5052976;28;20220;-61
2023/01/22 01:53:50;;;;;;;10.80;5.87;;;;;;;4.38;69.62;101544.41;5056418;28;20262;-61
2023/01/22 01:56:21;;;;;;;13.63;6.83;;;;;;;4.36;69.83;101538.38;5049997;28;20226;-60
2023/01/22 01:58:52;;;;;;;11.97;6.40;;;;;;;4.39;69.84;101537.38;5051139;28;20227;-60
2023/01/22 02:01:22;;;;;;;14.23;6.37;;;;;;;4.42;69.76;101532.78;5053593;28;20217;-61
2023/01/22 02:03:52;;;;;;;12.13;6.40;;;;;;;4.41;69.79;101541.59;5051801;28;20576;-61
2023/01/22 02:06:20;;;;;;;11.20;7.07;;;;;;;4.40;69.62;101534.63;5049405;28;20202;-60
2023/01/22 02:08:50;;;;;;;11.53;6.10;;;;;;;4.42;69.59;101539.81;5050094;28;20215;-61
2023/01/22 02:11:19;;;;;;;10.87;5.77;;;;;;;4.44;69.75;101535.31;5049793;28;20241;-60
2023/01/22 02:13:51;;;;;;;12.93;6.30;;;;;;;4.43;69.52;101538.88;5053756;28;20692;-60
2023/01/22 02:16:19;;;;;;;12.13;6.17;;;;;;;4.43;69.46;101533.63;5054067;28;20628;-61
2023/01/22 02:18:47;;;;;;;11.73;6.00;;;;;;;4.43;69.42;101531.84;5048724;28;20739;-61
2023/01/22 02:21:30;;;;;;;11.93;6.17;;;;;;;4.42;69.73;101531.94;5047872;28;20211;-62
2023/01/22 02:23:58;;;;;;;15.33;6.50;;;;;;;4.41;69.79;101531.09;5053811;28;20214;-62
2023/01/22 02:26:26;;;;;;;13.40;6.00;;;;;;;4.46;69.42;101533.47;5048768;28;20220;-60
2023/01/22 02:28:53;;;;;;;9.83;5.43;;;;;;;4.47;69.51;101538.66;5052083;28;20214;-60
2023/01/22 02:31:21;;;;;;;10.47;5.43;;;;;;;4.49;69.54;101534.13;5049654;28;20320;-61
2023/01/22 02:33:49;;;;;;;11.43;5.80;;;;;;;4.50;69.49;101541.09;5051790;28;20725;-60
2023/01/22 02:36:17;;;;;;;10.53;5.50;;;;;;;4.52;69.42;101530.50;5051088;28;20218;-61
2023/01/22 02:38:46;;;;;;;12.53;6.27;;;;;;;4.55;69.04;101530.34;5052070;28;20242;-61
2023/01/22 02:41:14;;;;;;;10.13;5.30;;;;;;;4.53;69.48;101534.84;5052483;28;20215;-61
2023/01/22 02:43:42;;;;;;;9.10;4.73;;;;;;;4.55;69.29;101538.22;5053678;28;20207;-61
2023/01/22 02:46:10;;;;;;;11.67;5.63;;;;;;;4.55;69.40;101535.59;5051087;28;20396;-61
2023/01/22 02:48:37;;;;;;;12.03;5.60;;;;;;;4.53;69.21;101534.84;5047655;28;20298;-61
2023/01/22 02:51:06;;;;;;;13.47;5.73;;;;;;;4.53;69.27;101529.59;5050197;28;20730;-62
2023/01/22 02:53:33;;;;;;;11.63;5.60;;;;;;;4.56;69.36;101533.81;5051951;28;20238;-60
2023/01/22 02:56:07;;;;;;;9.60;5.17;;;;;;;4.59;69.18;101533.63;5047322;28;20214;-60
2023/01/22 02:58:35;;;;;;;11.00;5.97;;;;;;;4.56;69.02;101524.16;5046011;28;20295;-60
2023/01/22 03:01:17;;;;;;;12.57;5.73;;;;;;;4.58;69.12;101524.91;5050475;28;20210;-60
2023/01/22 03:03:46;;;;;;;10.07;5.90;;;;;;;4.59;68.98;101529.22;5053042;28;20643;-59
2023/01/22 03:06:14;;;;;;;10.83;5.67;;;;;;;4.59;68.92;101528.38;5049411;28;20219;-59
2023/01/22 03:08:43;;;;;;;11.17;5.37;;;;;;;4.59;68.90;101538.91;5047567;28;20300;-59
2023/01/22 03:11:12;;;;;;;13.97;5.70;;;;;;;4.59;69.15;101533.63;5051107;28;20244;-60
2023/01/22 03:21:56;;;;;;;9.50;5.23;;;;;;;4.63;68.71;101533.41;5050494;28;20296;-61
2023/01/22 03:24:24;;;;;;;9.53;4.67;;;;;;;4.61;68.96;101527.38;5050371;28;20566;-62
2023/01/22 03:26:53;;;;;;;9.93;5.47;;;;;;;4.64;69.09;101527.22;5047383;28;20313;-62
2023/01/22 03:29:21;;;;;;;10.33;5.67;;;;;;;4.64;68.77;101527.22;5046792;28;20219;-62
2023/01/22 03:31:48;;;;;;;10.23;5.40;;;;;;;4.63;68.97;101527.28;5049570;28;20869;-62
2023/01/22 03:34:17;;;;;;;10.60;5.43;;;;;;;4.64;69.00;101521.97;5049185;28;20240;-62
2023/01/22 03:36:45;;;;;;;9.17;4.57;;;;;;;4.62;69.02;101531.69;5051025;28;20218;-62
2023/01/22 03:39:13;;;;;;;9.07;4.83;;;;;;;4.63;69.26;101529.94;5045694;28;20222;-61
2023/01/22 03:41:41;;;;;;;10.33;4.90;;;;;;;4.64;69.08;101529.00;5047527;28;20721;-62
2023/01/22 03:44:10;;;;;;;11.13;5.20;;;;;;;4.61;69.12;101529.16;5048376;28;20211;-63
2023/01/22 03:46:39;;;;;;;11.07;5.13;;;;;;;4.61;69.18;101522.13;5048703;28;20206;-61
2023/01/22 03:49:07;;;;;;;9.57;5.30;;;;;;;4.62;69.28;101529.06;5050419;28;20284;-61
2023/01/22 03:51:35;;;;;;;9.50;4.97;;;;;;;4.61;69.16;101527.38;5050407;28;20860;-61
2023/01/22 03:54:03;;;;;;;11.27;5.40;;;;;;;4.61;69.45;101532.63;5048623;28;20792;-61
2023/01/22 03:56:31;;;;;;;9.50;5.00;;;;;;;4.62;69.64;101526.44;5057588;28;20214;-62
2023/01/22 03:58:59;;;;;;;10.60;4.70;;;;;;;4.62;69.54;101523.81;5045090;28;20989;-62
2023/01/22 04:01:28;;;;;;;11.57;4.57;;;;;;;4.61;69.83;101524.75;5046882;28;20215;-61
2023/01/22 04:03:56;;;;;;;8.57;4.90;;;;;;;4.65;69.69;101526.28;5048602;28;20210;-61
2023/01/22 04:06:24;;;;;;;9.20;4.87;;;;;;;4.64;69.68;101521.97;5048470;28;20214;-60
2023/01/22 04:08:54;;;;;;;9.33;4.87;;;;;;;4.67;69.49;101532.28;5049049;28;20211;-61
2023/01/22 04:11:23;;;;;;;11.47;4.80;;;;;;;4.69;69.27;101529.56;5047512;28;20234;-62
2023/01/22 04:13:51;;;;;;;9.43;4.17;;;;;;;4.71;69.58;101530.34;5047954;28;20226;-61
2023/01/22 04:16:18;;;;;;;8.73;4.43;;;;;;;4.72;69.40;101539.94;5048940;28;20218;-60
2023/01/22 04:18:48;;;;;;;10.67;4.73;;;;;;;4.74;69.50;101546.81;5047267;28;20351;-61
2023/01/22 04:21:15;;;;;;;9.17;4.67;;;;;;;4.73;69.62;101541.63;5043648;28;20225;-61
2023/01/22 04:23:43;;;;;;;8.37;4.23;;;;;;;4.72;69.51;101540.78;5046320;28;20762;-61
2023/01/22 04:26:11;;;;;;;8.70;4.33;;;;;;;4.74;69.60;101543.31;5043680;28;20215;-61
2023/01/22 04:28:38;;;;;;;7.40;4.00;;;;;;;4.74;69.52;101533.66;5047530;28;20295;-61
2023/01/22 04:31:07;;;;;;;6.83;3.87;;;;;;;4.76;69.28;101539.66;5046982;28;20273;-60
2023/01/22 04:33:35;;;;;;;9.90;5.03;;;;;;;4.76;69.31;101542.28;5047941;28;20999;-61
2023/01/22 04:36:05;;;;;;;8.40;4.23;;;;;;;4.75;69.48;101532.69;5046646;28;20583;-61
2023/01/22 04:38:32;;;;;;;6.10;3.60;;;;;;;4.76;69.50;101537.03;5046114;28;20226;-60
2023/01/22 04:41:00;;;;;;;7.13;4.00;;;;;;;4.75;69.49;101540.59;5045625;28;20230;-61
2023/01/22 04:43:28;;;;;;;8.03;3.57;;;;;;;4.75;69.51;101534.50;5048914;28;20624;-61
2023/01/22 04:45:55;;;;;;;6.60;3.50;;;;;;;4.73;69.83;101537.22;5045440;28;20211;-61
2023/01/22 04:48:23;;;;;;;8.70;3.73;;;;;;;4.74;69.85;101541.56;5045742;28;20242;-60
2023/01/22 04:50:51;;;;;;;8.17;4.00;;;;;;;4.75;69.87;101535.34;5043754;28;20310;-60
2023/01/22 04:53:20;;;;;;;7.33;3.97;;;;;;;4.77;69.71;101538.72;5048602;28;20274;-61
2023/01/22 04:55:48;;;;;;;8.30;3.77;;;;;;;4.76;69.53;101534.41;5045040;28;20203;-60
2023/01/22 04:58:15;;;;;;;8.33;3.40;;;;;;;4.72;69.73;101532.91;5046969;28;20632;-61
2023/01/22 05:00:43;;;;;;;5.37;3.37;;;;;;;4.71;69.93;101539.06;5043678;28;20249;-60
2023/01/22 05:03:11;;;;;;;7.00;3.90;;;;;;;4.69;70.01;101532.19;5046906;28;20291;-61
2023/01/22 05:05:39;;;;;;;7.03;3.67;;;;;;;4.71;70.19;101536.44;5045169;28;20211;-61
2023/01/22 05:08:07;;;;;;;6.43;3.20;;;;;;;4.73;70.04;101536.38;5046593;28;20238;-61
2023/01/22 05:10:36;;;;;;;6.63;3.43;;;;;;;4.74;70.30;101538.06;5043433;28;20243;-61
2023/01/22 05:13:04;;;;;;;6.27;3.37;;;;;;;4.70;70.28;101537.38;5042573;28;20218;-60
2023/01/22 05:15:32;;;;;;;5.80;3.07;;;;;;;4.71;70.32;101549.59;5047767;28;21621;-61
2023/01/22 05:18:00;;;;;;;7.00;3.13;;;;;;;4.69;70.31;101534.84;5046395;28;20451;-62
2023/01/22 05:20:28;;;;;;;6.07;3.13;;;;;;;4.71;70.47;101544.34;5048067;28;20211;-60
2023/01/22 05:22:56;;;;;;;6.63;3.33;;;;;;;4.72;70.30;101551.28;5047316;28;20272;-64
2023/01/22 05:25:24;;;;;;;5.63;3.30;;;;;;;4.71;70.49;101552.22;5047713;28;20206;-61
2023/01/22 05:27:53;;;;;;;5.70;2.90;;;;;;;4.73;70.34;101555.63;5047697;28;20215;-61
2023/01/22 05:30:21;;;;;;;6.07;3.27;;;;;;;4.74;70.32;101553.84;5048236;28;20211;-61
2023/01/22 05:32:49;;;;;;;6.00;3.63;;;;;;;4.76;70.36;101552.78;5048624;28;20823;-62
2023/01/22 05:35:17;;;;;;;5.93;3.33;;;;;;;4.77;70.11;101554.50;5048121;28;20241;-62
2023/01/22 05:37:44;;;;;;;6.97;2.97;;;;;;;4.77;69.81;101559.75;5046987;28;20217;-61
2023/01/22 05:40:13;;;;;;;6.43;3.23;;;;;;;4.76;70.14;101558.06;5043378;28;20660;-62
2023/01/22 05:42:41;;;;;;;5.43;2.80;;;;;;;4.77;69.89;101554.50;5046628;28;20221;-61
2023/01/22 05:45:11;;;;;;;5.57;3.03;;;;;;;4.76;69.91;101555.44;5049261;28;20207;-63
2023/01/22 05:47:38;;;;;;;4.67;2.80;;;;;;;4.71;70.05;101554.84;5043540;28;20213;-63
2023/01/22 05:50:07;;;;;;;5.17;2.63;;;;;;;4.71;70.02;101561.88;5047840;28;20209;-62
2023/01/22 05:52:34;;;;;;;5.20;2.60;;;;;;;4.71;70.04;101560.09;5043758;28;20305;-62
2023/01/22 05:55:02;;;;;;;6.50;2.53;;;;;;;4.69;69.98;101561.97;5041369;28;20225;-59
2023/01/22 05:57:34;;;;;;;4.93;2.77;;;;;;;4.66;70.13;101564.75;5046026;28;20211;-62
2023/01/22 06:00:01;;;;;;;4.40;2.67;;;;;;;4.67;70.06;101562.97;5041688;28;20230;-61
2023/01/22 06:02:31;;;;;;;5.63;3.13;;;;;;;4.66;69.73;101562.13;5045778;28;20302;-62
2023/01/22 06:04:58;;;;;;;4.83;2.63;;;;;;;4.66;69.67;101566.56;5043477;28;20211;-61
2023/01/22 06:07:26;;;;;;;11.80;3.40;;;;;;;4.66;69.71;101575.25;5047160;28;20225;-62
2023/01/22 06:09:54;;;;;;;6.50;3.03;;;;;;;4.70;69.87;101571.53;5046318;28;20210;-62
2023/01/22 06:12:22;;;;;;;4.53;2.57;;;;;;;4.72;69.54;101568.84;5044223;28;21126;-62
2023/01/22 06:14:51;;;;;;;10.20;2.90;;;;;;;4.72;69.57;101572.31;5046970;28;20231;-62
2023/01/22 06:17:20;;;;;;;5.57;2.90;;;;;;;4.73;69.42;101574.00;5046000;28;20211;-62
2023/01/22 06:19:49;;;;;;;3.27;2.20;;;;;;;4.73;69.51;101574.00;5046386;28;20260;-61
2023/01/22 06:22:18;;;;;;;3.87;2.20;;;;;;;4.73;69.59;101571.38;5047711;28;20225;-60
2023/01/22 06:24:45;;;;;;;5.00;2.93;;;;;;;4.73;69.59;101568.75;5047225;28;20215;-61
2023/01/22 06:27:13;;;;;;;3.93;2.50;;;;;;;4.75;69.32;101569.50;5047091;28;21037;-61
2023/01/22 06:29:41;;;;;;;5.57;2.93;;;;;;;4.76;69.26;101573.81;5043564;28;20213;-61
2023/01/22 06:32:08;;;;;;;8.37;3.00;;;;;;;4.76;69.20;101567.72;5048034;28;20219;-60
2023/01/22 06:34:37;;;;;;;5.73;3.20;;;;;;;4.78;69.40;101566.72;5050383;28;20237;-61
2023/01/22 06:37:06;;;;;;;4.07;2.33;;;;;;;4.76;69.46;101563.31;5048975;28;20211;-60
2023/01/22 06:39:33;;;;;;;5.50;2.90;;;;;;;4.77;69.34;101565.00;5049884;28;20241;-61
2023/01/22 06:42:01;;;;;;;3.93;2.30;;;;;;;4.77;69.30;101569.41;5049850;28;20219;-61
2023/01/22 06:44:29;;;;;;;4.70;2.67;;;;;;;4.78;69.14;101571.97;5048743;28;20218;-61
2023/01/22 06:46:57;;;;;;;4.73;2.47;;;;;;;4.76;69.11;101571.19;5049722;28;20203;-61
2023/01/22 06:49:24;;;;;;;5.47;2.83;;;;;;;4.74;69.33;101569.59;5052156;28;20236;-61
2023/01/22 06:51:52;;;;;;;5.50;2.60;;;;;;;4.72;69.34;101581.97;5047946;28;20217;-62
2023/01/22 06:54:21;;;;;;;6.33;2.63;;;;;;;4.64;69.62;101585.03;5049351;28;20834;-60
2023/01/22 06:56:49;;;;;;;5.43;2.77;;;;;;;4.66;69.75;101585.75;5050485;28;20216;-62
2023/01/22 06:59:16;;;;;;;5.53;2.70;;;;;;;4.71;69.76;101585.53;5049361;28;20719;-61
2023/01/22 07:01:44;;;;;;;4.13;2.70;;;;;;;4.73;69.62;101592.41;5049813;28;20247;-61
2023/01/22 07:04:12;;;;;;;4.67;2.50;;;;;;;4.75;69.56;101593.16;5049334;28;20226;-61
2023/01/22 07:06:40;;;;;;;4.30;2.57;;;;;;;4.74;69.48;101595.88;5052872;28;20517;-61
2023/01/22 07:09:07;;;;;;;4.30;2.40;;;;;;;4.73;69.65;101608.16;5049340;28;20206;-60
2023/01/22 07:11:37;;;;;;;6.47;2.97;;;;;;;4.76;69.35;101607.97;5044865;28;20234;-60
2023/01/22 07:14:04;;;;;;;4.03;2.47;;;;;;;4.77;69.18;101609.69;5048708;28;20207;-60
2023/01/22 07:16:32;;;;;;;6.07;2.90;;;;;;;4.76;68.96;101602.72;5051214;28;20238;-61
2023/01/22 07:19:00;;;;;;;4.50;2.87;;;;;;;4.78;69.23;101621.91;5050411;28;20205;-60
2023/01/22 07:21:28;;;;;;;5.10;2.77;;;;;;;4.74;69.32;101617.75;5047266;28;20218;-60
2023/01/22 07:23:55;;;;;;;4.70;3.00;;;;;;;4.77;69.40;101621.97;5051618;28;20208;-60
2023/01/22 07:26:23;;;;;;;5.53;3.20;;;;;;;4.75;69.47;101615.97;5047038;28;20546;-61
2023/01/22 07:28:52;;;;;;;4.20;2.43;;;;;;;4.77;69.24;101622.81;5048849;28;20720;-61
2023/01/22 07:31:20;;;;;;;4.40;2.47;;;;;;;4.82;69.16;101628.69;5052534;28;20207;-61
2023/01/22 07:33:48;;;;;;;5.20;2.70;;;;;;;4.85;69.25;101635.53;5053516;28;20218;-60
2023/01/22 07:36:16;;;;;;;4.20;2.60;;;;;;;4.86;69.25;101626.72;5049722;28;20235;-60
2023/01/22 07:38:43;;;;;;;4.60;2.67;;;;;;;4.85;69.25;101625.88;5053742;28;20214;-61
2023/01/22 07:41:11;;;;;;;5.17;2.80;;;;;;;4.90;68.81;101639.63;5051112;28;20554;-61
2023/01/22 07:43:56;;;;;;;4.60;2.37;;;;;;;4.84;69.00;101629.44;5051445;28;20238;-61
2023/01/22 07:46:24;;;;;;;5.40;2.97;;;;;;;4.85;69.41;101631.13;5054242;28;20223;-62
2023/01/22 07:48:52;;;;;;;4.57;2.63;;;;;;;4.87;69.28;101641.56;5053716;28;20211;-61
2023/01/22 07:51:19;;;;;;;4.00;2.57;;;;;;;4.86;69.40;101648.59;5055775;28;20683;-62
2023/01/22 07:53:47;;;;;;;5.53;3.00;;;;;;;4.85;69.21;101646.91;5057189;28;20213;-61
2023/01/22 07:56:17;;;;;;;4.80;2.50;;;;;;;4.88;69.08;101652.00;5055239;28;20225;-60
2023/01/22 07:58:45;;;;;;;4.67;2.77;;;;;;;4.87;69.16;101655.56;5056583;28;20237;-61
2023/01/22 08:01:14;;;;;;;5.60;2.93;;;;;;;4.86;69.35;101653.03;5053362;28;20228;-63
2023/01/22 08:03:45;;;;;;;4.57;2.90;;;;;;;4.88;69.41;101662.53;5052677;28;20294;-61
2023/01/22 08:06:19;;;;;;;6.57;3.00;;;;;;;4.86;69.34;101655.66;5051221;28;20212;-61
2023/01/22 08:08:47;;;;;;;4.57;2.60;;;;;;;4.89;69.16;101663.38;5049339;28;20215;-60
2023/01/22 08:11:15;;;;;;;4.90;2.80;;;;;;;4.87;69.20;101666.06;5047869;28;20237;-60
2023/01/22 08:13:42;;;;;;;4.60;2.40;;;;;;;4.94;68.98;101663.97;5044474;28;20209;-61
2023/01/22 08:16:10;;;;;;;4.10;2.70;;;;;;;4.92;68.93;101673.72;5046255;28;20929;-60
2023/01/22 08:18:39;;;;;;;4.50;2.80;;;;;;;4.95;69.00;101678.81;5045679;28;20239;-60
2023/01/22 08:21:07;;;;;;;5.43;3.03;;;;;;;4.99;68.91;101677.72;5047841;28;20217;-61
2023/01/22 08:23:35;;;;;;;5.17;2.80;;;;;;;5.01;68.79;101675.00;5044217;28;20852;-60
2023/01/22 08:26:04;;;;;;;4.83;3.00;;;;;;;5.01;68.88;101686.38;5038154;28;20991;-61
2023/01/22 08:28:32;;;;;;;5.27;2.97;;;;;;;5.05;68.85;101687.03;5045842;28;20215;-62
2023/01/22 08:31:01;;;;;;;5.30;2.90;;;;;;;5.06;68.87;101686.97;5047038;28;20215;-61
2023/01/22 08:33:31;;;;;;;5.70;2.93;;;;;;;5.10;68.87;101682.41;5044863;28;20207;-61
2023/01/22 08:36:00;;;;;;;7.23;3.60;;;;;;;5.15;68.89;101680.34;5045641;28;20231;-61
2023/01/22 08:38:27;;;;;;;5.00;3.37;;;;;;;5.16;68.73;101692.56;5043103;28;20211;-62
2023/01/22 08:40:55;;;;;;;4.63;2.60;;;;;;;5.18;68.44;101696.84;5046081;28;20863;-61
2023/01/22 08:43:23;;;;;;;4.90;2.70;;;;;;;5.19;68.50;101697.69;5047516;28;20305;-61
2023/01/22 08:45:51;;;;;;;5.00;3.57;;;;;;;5.21;68.83;101693.16;5046340;28;22043;-61
2023/01/22 08:48:18;;;;;;;5.50;3.10;;;;;;;5.25;68.62;101692.94;5045252;28;20211;-61
2023/01/22 08:50:46;;;;;;;5.73;3.57;;;;;;;5.24;68.24;101695.63;5046901;28;20609;-62
2023/01/22 08:53:15;;;;;;;6.27;3.17;;;;;;;5.25;68.26;101697.34;5043065;28;22076;-62
2023/01/22 08:55:49;;;;;;;8.20;3.13;;;;;;;5.31;68.30;101707.50;5047040;28;20605;-61
2023/01/22 08:58:19;;;;;;;5.63;3.10;;;;;;;5.34;68.36;101706.50;5045847;28;20215;-60
2023/01/22 09:00:46;;;;;;;5.53;3.00;;;;;;;5.27;68.09;101704.22;5047123;28;20211;-62
2023/01/22 09:03:14;;;;;;;6.77;3.23;;;;;;;5.28;68.47;101712.94;5047062;28;20792;-62
2023/01/22 09:05:42;;;;;;;5.10;3.27;;;;;;;5.32;68.59;101705.72;5047773;28;20221;-62
2023/01/22 09:08:10;;;;;;;5.57;3.40;;;;;;;5.34;68.55;101712.63;5047139;28;20216;-62
2023/01/22 09:10:40;;;;;;;5.03;3.23;;;;;;;5.36;68.59;101702.00;5043305;28;20237;-62
2023/01/22 09:13:08;;;;;;;5.53;3.80;;;;;;;5.45;68.07;101712.03;5043479;28;20222;-61
2023/01/22 09:15:37;;;;;;;5.43;3.20;;;;;;;5.52;67.97;101711.59;5043484;28;20301;-62
2023/01/22 09:18:05;;;;;;;6.53;3.77;;;;;;;5.56;67.58;101707.84;5041505;28;20211;-62
2023/01/22 09:20:33;;;;;;;4.87;3.30;;;;;;;5.61;67.20;101721.59;5046566;28;20214;-61
2023/01/22 09:23:00;;;;;;;5.67;3.53;;;;;;;5.64;67.24;101716.16;5044017;28;20212;-61
2023/01/22 09:25:29;;;;;;;6.53;3.73;;;;;;;5.65;67.12;101715.22;5045126;28;20273;-61
2023/01/22 09:27:59;;;;;;;6.33;3.60;;;;;;;5.72;66.94;101720.16;5047425;28;20204;-62
2023/01/22 09:30:28;;;;;;;5.93;3.77;;;;;;;5.80;66.44;101725.84;5042437;28;20539;-61
2023/01/22 09:32:57;;;;;;;7.03;3.47;;;;;;;5.85;66.59;101727.25;5045750;28;20208;-61
2023/01/22 09:35:26;;;;;;;5.47;3.43;;;;;;;5.90;66.31;101729.66;5044911;28;20295;-62
2023/01/22 09:37:54;;;;;;;7.13;3.77;;;;;;;5.87;66.36;101729.81;5043463;28;20231;-61
2023/01/22 09:40:26;;;;;;;5.93;3.50;;;;;;;5.87;66.16;101732.44;5045726;28;20208;-62
2023/01/22 09:43:03;;;;;;;6.57;3.40;;;;;;;5.90;65.80;101733.13;5041157;28;20218;-60
2023/01/22 09:45:34;;;;;;;5.63;3.40;;;;;;;5.89;65.85;101733.25;5039373;28;20580;-62
2023/01/22 09:48:07;;;;;;;6.43;4.30;;;;;;;5.89;66.16;101736.69;5045891;28;20290;-62
2023/01/22 09:50:36;;;;;;;7.60;3.90;;;;;;;5.89;66.18;101736.69;5042339;28;20207;-60
2023/01/22 09:53:07;;;;;;;7.60;4.47;;;;;;;5.92;66.02;101735.69;5044728;28;22271;-61
2023/01/22 09:55:42;;;;;;;7.27;4.07;;;;;;;5.96;66.02;101738.06;5045211;28;20636;-62
2023/01/22 09:58:15;;;;;;;6.20;3.63;;;;;;;5.99;65.21;101740.50;5044354;28;20238;-61
2023/01/22 10:00:48;;;;;;;6.23;3.70;;;;;;;5.91;65.78;101739.25;5046725;28;20309;-62
2023/01/22 10:03:22;;;;;;;6.90;4.20;;;;;;;5.90;66.21;101746.28;5042584;28;20212;-62
2023/01/22 10:05:55;;;;;;;7.27;3.97;;;;;;;5.96;66.33;101743.34;5047162;28;20200;-61
2023/01/22 10:08:27;;;;;;;6.80;4.20;;;;;;;6.04;66.17;101745.53;5045158;28;20208;-62
2023/01/22 10:10:55;;;;;;;6.93;4.47;;;;;;;6.10;65.75;101739.91;5045272;28;20338;-61
2023/01/22 10:13:28;;;;;;;7.83;4.57;;;;;;;6.19;65.44;101744.63;5045563;28;20208;-62
2023/01/22 10:15:57;;;;;;;6.83;4.23;;;;;;;6.25;65.14;101735.50;5047173;28;20219;-61
2023/01/22 10:18:29;;;;;;;6.73;4.00;;;;;;;6.25;65.02;101746.91;5049385;28;20239;-62
2023/01/22 10:21:00;;;;;;;6.60;4.10;;;;;;;6.14;65.77;101749.34;5054071;28;20205;-62
2023/01/22 10:23:30;;;;;;;6.30;3.53;;;;;;;6.14;65.99;101744.06;5046676;28;20212;-62
2023/01/22 10:26:04;;;;;;;6.27;3.70;;;;;;;6.20;65.68;101740.22;5050106;28;20223;-61
2023/01/22 10:28:33;;;;;;;7.03;3.50;;;;;;;6.24;65.49;101742.59;5051562;28;20216;-62
2023/01/22 10:31:04;;;;;;;6.70;4.10;;;;;;;6.23;65.01;101740.03;5052358;28;20207;-61
2023/01/22 10:33:37;;;;;;;5.63;3.50;;;;;;;6.21;65.58;101745.41;5049663;28;20281;-61
2023/01/22 10:36:06;;;;;;;6.80;3.80;;;;;;;6.24;65.64;101742.59;5050653;28;20208;-62
2023/01/22 10:38:34;;;;;;;6.77;4.10;;;;;;;6.37;64.98;101754.09;5049994;28;20284;-62
2023/01/22 10:41:03;;;;;;;6.13;4.07;;;;;;;6.48;64.91;101744.72;5049803;28;20219;-61
2023/01/22 10:43:34;;;;;;;6.73;3.87;;;;;;;6.54;64.69;101742.56;5051390;28;20208;-62
2023/01/22 10:46:16;;;;;;;7.77;4.70;;;;;;;6.65;64.42;101742.78;5049589;28;20213;-62
2023/01/22 10:48:44;;;;;;;8.30;4.80;;;;;;;6.64;64.59;101746.34;5049586;28;20634;-63
2023/01/22 10:51:15;;;;;;;6.87;4.50;;;;;;;6.72;64.45;101748.50;5045467;28;20208;-61
2023/01/22 10:53:48;;;;;;;8.93;4.83;;;;;;;6.72;63.97;101746.72;5045261;28;20261;-67
2023/01/22 10:56:29;;;;;;;6.77;4.63;;;;;;;6.69;64.06;101741.63;5046438;28;20208;-66
2023/01/22 10:59:00;;;;;;;6.90;4.10;;;;;;;6.70;64.22;101745.13;5045907;28;20227;-68
2023/01/22 11:01:31;;;;;;;8.83;5.10;;;;;;;6.79;64.02;101736.66;5048835;28;20216;-67
2023/01/22 11:03:59;;;;;;;6.30;4.40;;;;;;;6.77;63.71;101741.19;5046125;28;20277;-67
2023/01/22 11:06:35;;;;;;;8.17;4.23;;;;;;;6.64;63.67;101745.50;5048231;28;20208;-67
2023/01/22 11:09:07;;;;;;;6.10;4.20;;;;;;;6.50;64.01;101745.47;5041768;28;20203;-68
2023/01/22 11:11:39;;;;;;;8.13;3.97;;;;;;;6.30;64.46;101741.38;5047483;28;20329;-67
2023/01/22 11:14:18;;;;;;;7.10;4.33;;;;;;;6.17;65.40;101746.50;5046893;28;20231;-68
2023/01/22 11:16:51;;;;;;;7.27;4.77;;;;;;;6.18;66.01;101742.94;5047170;28;20606;-67
2023/01/22 11:19:23;;;;;;;8.07;4.77;;;;;;;6.24;65.76;101747.00;5049417;28;20223;-66
2023/01/22 11:22:11;;;;;;;7.53;4.73;;;;;;;6.25;65.32;101744.25;5047178;28;20204;-68
2023/01/22 11:24:45;;;;;;;7.57;4.80;;;;;;;6.07;65.65;101742.69;5052002;28;21040;-67
2023/01/22 11:27:56;;;;;;;6.90;4.83;;;;;;;6.04;66.08;101756.06;5051443;28;20222;-66
2023/01/22 11:31:02;;;;;;;8.60;4.67;;;;;;;6.05;66.41;101752.50;5035001;28;20826;-66
2023/01/22 11:33:52;;;;;;;8.13;4.80;;;;;;;6.15;66.35;101748.41;5031932;28;20204;-67
2023/01/22 11:36:26;;;;;;;7.90;4.57;;;;;;;6.15;65.93;101752.81;5052308;28;20273;-65
2023/01/22 11:38:57;;;;;;;6.27;3.90;;;;;;;6.13;65.78;101747.63;5050619;28;20224;-65
2023/01/22 11:41:41;;;;;;;7.53;3.97;;;;;;;6.04;66.00;101740.25;5051091;28;20221;-67
2023/01/22 11:44:35;;;;;;;6.73;4.20;;;;;;;6.00;66.23;101752.75;5052708;28;20207;-66
2023/01/22 11:47:19;;;;;;;6.97;4.03;;;;;;;5.93;66.46;101745.28;5052314;28;20259;-66
2023/01/22 11:50:02;;;;;;;8.10;4.60;;;;;;;5.92;66.88;101741.78;5053026;28;20673;-66
2023/01/22 11:52:42;;;;;;;7.97;5.03;;;;;;;6.06;66.63;101746.28;5049518;28;20212;-65
2023/01/22 11:55:39;;;;;;;7.67;4.43;;;;;;;6.22;66.48;101733.06;5052184;28;20305;-65